Time;durP1;ratioP1;P1;durP2;ratioP2;P2;SDS_P1;SDS_P2;PMS_P1;PMS_P2;Temp;Humidity;BMP_temperature;BMP_pressure;BME280_temperature;BME280_humidity;BME280_pressure;Samples;Min_cycle;Max_cycle;Signal;HPM_P1;HPM_P2
2022/06/26 00:00:21;;;;;;;10.10;7.20;;;18.20;99.90;;;;;;5038847;28;20244;-56
2022/06/26 00:02:48;;;;;;;8.40;7.10;;;18.20;99.90;;;;;;5043478;28;20252;-56
2022/06/26 00:05:15;;;;;;;8.03;7.03;;;18.10;99.90;;;;;;5046299;28;20199;-56
2022/06/26 00:07:42;;;;;;;8.30;7.40;;;18.10;99.90;;;;;;5042236;28;20202;-55
2022/06/26 00:10:09;;;;;;;8.83;7.97;;;18.20;99.90;;;;;;5038577;28;20199;-55
2022/06/26 00:12:35;;;;;;;10.60;8.43;;;18.10;99.90;;;;;;5039102;28;20743;-56
2022/06/26 00:15:03;;;;;;;9.50;8.57;;;18.00;99.90;;;;;;5040473;28;20842;-55
2022/06/26 00:17:29;;;;;;;9.40;8.40;;;18.20;99.90;;;;;;5042561;28;20277;-55
2022/06/26 00:19:57;;;;;;;9.13;8.20;;;18.30;99.90;;;;;;5048780;28;20842;-56
2022/06/26 00:22:24;;;;;;;10.07;7.27;;;18.20;99.90;;;;;;5046510;28;20864;-56
2022/06/26 00:24:50;;;;;;;8.37;7.63;;;18.20;99.90;;;;;;5037057;28;20207;-55
2022/06/26 00:27:17;;;;;;;7.77;6.97;;;18.20;99.90;;;;;;5043855;28;20196;-57
2022/06/26 00:29:44;;;;;;;8.67;7.30;;;18.10;99.90;;;;;;5047443;28;20196;-56
2022/06/26 00:32:11;;;;;;;8.67;7.37;;;18.00;99.90;;;;;;5036697;28;20288;-56
2022/06/26 00:34:38;;;;;;;7.87;7.07;;;18.10;99.90;;;;;;5044403;28;20269;-55
2022/06/26 00:37:05;;;;;;;8.53;7.43;;;18.10;99.90;;;;;;5045569;28;20298;-56
2022/06/26 00:39:31;;;;;;;8.60;7.27;;;18.00;99.90;;;;;;5044607;28;20308;-56
2022/06/26 00:41:58;;;;;;;10.60;7.80;;;18.20;99.90;;;;;;5047472;28;20290;-56
2022/06/26 00:44:25;;;;;;;8.30;7.43;;;18.10;99.90;;;;;;5045515;28;20600;-55
2022/06/26 00:46:52;;;;;;;8.57;7.53;;;18.10;99.90;;;;;;5045544;28;20235;-56
2022/06/26 00:49:19;;;;;;;8.73;7.83;;;18.10;99.90;;;;;;5047982;28;20227;-55
2022/06/26 00:51:54;;;;;;;11.30;7.97;;;18.10;99.90;;;;;;5051884;28;20207;-56
2022/06/26 00:54:24;;;;;;;8.27;7.47;;;18.00;99.90;;;;;;5048285;28;20281;-55
2022/06/26 00:56:51;;;;;;;8.70;7.37;;;18.00;99.90;;;;;;5047562;28;20889;-55
2022/06/26 00:59:18;;;;;;;9.97;7.37;;;18.00;99.90;;;;;;5046222;28;20210;-56
2022/06/26 01:01:45;;;;;;;8.43;7.53;;;18.10;99.90;;;;;;5043268;28;20333;-56
2022/06/26 01:04:12;;;;;;;9.50;8.33;;;18.20;99.90;;;;;;5042841;28;20769;-55
2022/06/26 01:06:39;;;;;;;9.43;8.43;;;18.10;99.90;;;;;;5033560;28;20602;-55
2022/06/26 01:09:05;;;;;;;10.90;8.50;;;18.10;99.90;;;;;;5035992;28;20627;-56
2022/06/26 01:11:32;;;;;;;8.53;7.63;;;18.00;99.90;;;;;;5044659;28;20212;-55
2022/06/26 01:14:00;;;;;;;8.90;8.03;;;18.00;99.90;;;;;;5045775;28;20212;-56
2022/06/26 01:16:27;;;;;;;9.93;8.60;;;18.00;99.90;;;;;;5047044;28;20230;-56
2022/06/26 01:18:56;;;;;;;10.13;8.40;;;18.10;99.90;;;;;;5045396;28;20309;-56
2022/06/26 01:21:23;;;;;;;9.73;8.83;;;18.10;99.90;;;;;;5047537;28;20281;-56
2022/06/26 01:23:52;;;;;;;10.27;8.67;;;17.90;99.90;;;;;;5046305;28;20248;-55
2022/06/26 01:26:21;;;;;;;8.63;7.67;;;18.00;99.90;;;;;;5049752;28;20311;-55
2022/06/26 01:28:48;;;;;;;10.33;9.20;;;17.90;99.90;;;;;;5049951;28;20310;-56
2022/06/26 01:31:15;;;;;;;11.57;9.70;;;17.80;99.90;;;;;;5040716;28;20736;-59
2022/06/26 01:33:43;;;;;;;11.80;10.53;;;17.60;99.90;;;;;;5044096;28;20356;-56
2022/06/26 01:36:09;;;;;;;11.87;10.63;;;17.60;99.90;;;;;;5043094;28;20206;-55
2022/06/26 01:38:36;;;;;;;18.33;13.20;;;17.70;99.90;;;;;;5046148;28;20632;-55
2022/06/26 01:41:04;;;;;;;17.63;14.20;;;17.60;99.90;;;;;;5042722;28;20261;-55
2022/06/26 01:43:33;;;;;;;18.97;15.37;;;17.60;99.90;;;;;;5040620;28;20300;-56
2022/06/26 01:46:01;;;;;;;22.53;17.23;;;17.40;99.90;;;;;;5054122;28;20250;-55
2022/06/26 01:48:29;;;;;;;21.83;17.60;;;17.30;99.90;;;;;;5040660;28;20240;-55
2022/06/26 01:50:58;;;;;;;23.20;17.27;;;17.40;99.90;;;;;;5044069;28;20711;-54
2022/06/26 01:53:25;;;;;;;22.13;16.97;;;17.40;99.90;;;;;;5041579;28;20205;-56
2022/06/26 01:55:52;;;;;;;19.73;16.53;;;17.50;99.90;;;;;;5043551;28;20603;-56
2022/06/26 01:58:19;;;;;;;23.83;17.33;;;17.50;99.90;;;;;;5042412;28;20240;-55
2022/06/26 02:00:47;;;;;;;24.83;17.73;;;17.60;99.90;;;;;;5042765;28;20325;-55
2022/06/26 02:03:16;;;;;;;24.20;17.90;;;17.30;99.90;;;;;;5037333;28;20227;-55
2022/06/26 02:05:43;;;;;;;24.13;18.90;;;17.30;99.90;;;;;;5045259;28;20203;-55
2022/06/26 02:08:10;;;;;;;23.67;18.10;;;17.30;99.90;;;;;;5043048;28;20613;-55
2022/06/26 02:16:30;;;;;;;26.83;17.73;;;17.50;99.90;;;;;;4973912;28;20212;-55
2022/06/26 02:18:58;;;;;;;27.80;20.40;;;17.40;99.90;;;;;;4976225;28;20210;-56
2022/06/26 02:21:27;;;;;;;24.17;18.40;;;17.50;99.90;;;;;;4975099;28;20276;-55
2022/06/26 02:23:55;;;;;;;20.53;17.67;;;17.30;99.90;;;;;;4974723;28;20782;-56
2022/06/26 02:26:22;;;;;;;26.33;19.30;;;17.20;99.90;;;;;;4975738;28;20300;-55
2022/06/26 02:28:50;;;;;;;27.47;19.53;;;17.20;99.90;;;;;;4976320;28;20194;-56
2022/06/26 02:31:17;;;;;;;23.10;18.53;;;17.20;99.90;;;;;;4969556;28;20228;-55
2022/06/26 02:33:44;;;;;;;26.40;18.90;;;17.10;99.90;;;;;;4972149;28;20895;-55
2022/06/26 02:36:11;;;;;;;24.20;19.23;;;17.30;99.90;;;;;;4970347;28;20209;-55
2022/06/26 02:38:37;;;;;;;25.27;18.40;;;17.20;99.90;;;;;;4976228;28;20730;-55
2022/06/26 02:41:04;;;;;;;24.17;17.73;;;17.10;99.90;;;;;;4957555;28;20297;-55
2022/06/26 02:43:32;;;;;;;20.40;17.17;;;17.20;99.90;;;;;;4975361;28;20302;-56
2022/06/26 02:45:59;;;;;;;24.27;17.63;;;17.30;99.90;;;;;;4975434;28;20209;-55
2022/06/26 02:48:26;;;;;;;23.93;17.50;;;17.30;99.90;;;;;;4973361;28;20406;-56
2022/06/26 02:50:52;;;;;;;23.50;16.90;;;17.10;99.90;;;;;;5018817;28;20226;-56
2022/06/26 02:53:20;;;;;;;22.23;17.57;;;17.00;99.90;;;;;;5042506;28;20199;-55
2022/06/26 02:55:47;;;;;;;19.90;16.10;;;17.10;99.90;;;;;;5043568;28;20286;-55
2022/06/26 02:58:14;;;;;;;21.70;15.93;;;17.10;99.90;;;;;;5038064;28;20270;-56
2022/06/26 03:00:41;;;;;;;20.20;15.63;;;17.10;99.90;;;;;;5046852;28;20234;-55
2022/06/26 03:03:07;;;;;;;18.43;16.10;;;17.10;99.90;;;;;;5043925;28;20263;-56
2022/06/26 03:05:35;;;;;;;22.93;14.93;;;17.00;99.90;;;;;;5049856;28;21577;-57
2022/06/26 03:08:02;;;;;;;20.67;15.93;;;17.00;99.90;;;;;;5048355;28;20205;-56
2022/06/26 03:10:28;;;;;;;24.63;15.33;;;16.90;99.90;;;;;;5047681;28;20276;-56
2022/06/26 03:12:55;;;;;;;20.77;14.43;;;16.90;99.90;;;;;;5047626;28;20203;-56
2022/06/26 03:15:22;;;;;;;20.30;14.37;;;16.90;99.90;;;;;;5044385;28;20207;-56
2022/06/26 03:17:49;;;;;;;19.30;15.63;;;16.80;99.90;;;;;;5046659;28;20616;-56
2022/06/26 03:20:18;;;;;;;18.97;13.43;;;16.70;99.90;;;;;;5047659;28;20307;-56
2022/06/26 03:22:46;;;;;;;18.00;12.80;;;16.60;99.90;;;;;;5041772;28;20608;-55
2022/06/26 03:25:14;;;;;;;18.97;13.33;;;16.60;99.90;;;;;;5047470;28;20295;-55
2022/06/26 03:27:41;;;;;;;20.60;13.53;;;16.80;99.90;;;;;;5047349;28;20246;-55
2022/06/26 03:30:09;;;;;;;15.13;12.77;;;16.80;99.90;;;;;;5045110;28;20671;-55
2022/06/26 03:32:36;;;;;;;19.03;11.93;;;16.90;99.90;;;;;;5052160;28;20961;-54
2022/06/26 03:35:04;;;;;;;17.23;11.60;;;16.80;99.90;;;;;;5046543;28;20198;-55
2022/06/26 03:37:31;;;;;;;17.90;12.33;;;16.90;99.90;;;;;;5046992;28;20850;-55
2022/06/26 03:39:58;;;;;;;21.50;12.97;;;16.80;99.90;;;;;;5046571;28;20214;-55
2022/06/26 03:42:25;;;;;;;14.97;10.87;;;16.80;99.90;;;;;;5040676;28;20559;-55
2022/06/26 03:44:52;;;;;;;15.60;11.60;;;16.80;99.90;;;;;;5044277;28;20255;-55
2022/06/26 03:47:19;;;;;;;16.03;10.90;;;16.90;99.90;;;;;;5045517;28;20203;-55
2022/06/26 03:49:46;;;;;;;14.63;9.87;;;16.70;99.90;;;;;;5047076;28;20230;-55
2022/06/26 03:52:13;;;;;;;13.73;10.33;;;16.70;99.90;;;;;;5045085;28;20655;-56
2022/06/26 03:54:40;;;;;;;14.57;9.90;;;16.70;99.90;;;;;;5046934;28;20202;-55
2022/06/26 03:57:07;;;;;;;15.23;10.00;;;16.70;99.90;;;;;;5048879;28;20222;-54
2022/06/26 03:59:34;;;;;;;11.70;9.13;;;16.70;99.90;;;;;;5049491;28;20324;-56
2022/06/26 04:02:01;;;;;;;11.97;9.70;;;16.70;99.90;;;;;;5048991;28;20658;-56
2022/06/26 04:04:28;;;;;;;13.47;10.03;;;16.80;99.90;;;;;;5044900;28;20216;-55
2022/06/26 04:06:54;;;;;;;15.23;10.43;;;16.80;99.90;;;;;;5045840;28;20351;-56
2022/06/26 04:09:21;;;;;;;15.50;10.07;;;16.80;99.90;;;;;;5049547;28;20199;-55
2022/06/26 04:11:48;;;;;;;12.10;8.90;;;16.70;99.90;;;;;;5044144;28;20520;-55
2022/06/26 04:14:15;;;;;;;13.83;9.40;;;16.80;99.90;;;;;;5047984;28;20599;-55
2022/06/26 04:16:42;;;;;;;14.40;9.13;;;16.70;99.90;;;;;;5040281;28;20203;-55
2022/06/26 04:19:09;;;;;;;14.40;9.23;;;16.80;99.90;;;;;;5046224;28;20214;-55
2022/06/26 04:21:36;;;;;;;11.30;8.00;;;16.60;99.90;;;;;;5045955;28;20256;-55
2022/06/26 04:24:03;;;;;;;12.13;8.10;;;16.60;99.90;;;;;;5044987;28;20214;-55
2022/06/26 04:26:29;;;;;;;11.17;8.97;;;16.70;99.90;;;;;;5039008;28;20239;-55
2022/06/26 04:28:56;;;;;;;14.87;8.40;;;16.70;99.90;;;;;;5046661;28;20211;-55
2022/06/26 04:31:23;;;;;;;12.83;9.00;;;16.70;99.90;;;;;;5046565;28;20211;-55
2022/06/26 04:33:50;;;;;;;11.13;8.20;;;16.70;99.90;;;;;;5044531;28;20235;-55
2022/06/26 04:36:17;;;;;;;11.40;8.43;;;16.70;99.90;;;;;;5047312;28;20210;-54
2022/06/26 04:38:44;;;;;;;14.13;8.87;;;16.80;99.90;;;;;;5042766;28;20297;-55
2022/06/26 04:43:56;;;;;;;11.27;8.23;;;16.80;99.90;;;;;;5045533;28;20329;-55
2022/06/26 04:46:23;;;;;;;11.90;8.50;;;16.40;99.90;;;;;;5045642;28;20279;-55
2022/06/26 04:48:51;;;;;;;13.83;8.50;;;16.50;99.90;;;;;;5038051;28;20234;-58
2022/06/26 04:51:18;;;;;;;10.67;8.53;;;16.40;99.90;;;;;;5043207;28;20234;-55
2022/06/26 04:53:45;;;;;;;12.87;8.53;;;16.50;99.90;;;;;;5047794;28;20604;-55
2022/06/26 04:56:12;;;;;;;11.43;7.77;;;16.50;99.90;;;;;;5044063;28;20293;-55
2022/06/26 04:58:38;;;;;;;14.80;7.83;;;16.30;99.90;;;;;;5044524;28;20289;-55
2022/06/26 05:01:05;;;;;;;11.63;7.77;;;16.30;99.90;;;;;;5043080;28;20267;-55
2022/06/26 05:03:32;;;;;;;13.70;7.40;;;16.40;99.90;;;;;;5047125;28;20213;-56
2022/06/26 05:06:08;;;;;;;12.43;7.77;;;16.50;99.90;;;;;;5049351;28;20757;-56
2022/06/26 05:08:42;;;;;;;14.20;7.97;;;16.40;99.90;;;;;;5048450;28;20297;-56
2022/06/26 05:11:09;;;;;;;13.50;7.97;;;16.40;99.90;;;;;;5042582;28;20226;-55
2022/06/26 05:13:36;;;;;;;10.20;6.83;;;16.50;99.90;;;;;;5034255;28;20300;-55
2022/06/26 05:16:03;;;;;;;12.23;6.83;;;16.50;99.90;;;;;;5040578;28;20199;-55
2022/06/26 05:18:30;;;;;;;9.83;6.77;;;16.70;99.90;;;;;;5046510;28;20238;-55
2022/06/26 05:20:57;;;;;;;8.80;6.80;;;16.60;99.90;;;;;;5047124;28;20206;-56
2022/06/26 05:23:24;;;;;;;12.67;6.60;;;16.60;99.90;;;;;;5040539;28;20346;-55
2022/06/26 05:25:52;;;;;;;9.17;6.33;;;16.50;99.90;;;;;;5047538;28;20574;-55
2022/06/26 05:28:19;;;;;;;12.30;6.47;;;16.70;99.90;;;;;;5044514;28;20202;-55
2022/06/26 05:30:46;;;;;;;9.87;6.93;;;16.60;99.90;;;;;;5042854;28;23066;-55
2022/06/26 05:33:13;;;;;;;9.77;6.30;;;16.60;99.90;;;;;;5039201;28;20226;-55
2022/06/26 05:35:39;;;;;;;11.50;6.23;;;16.70;99.90;;;;;;5042840;28;20209;-55
2022/06/26 05:38:07;;;;;;;7.13;5.87;;;16.80;99.90;;;;;;5042119;28;20261;-56
2022/06/26 05:40:34;;;;;;;9.17;6.43;;;16.60;99.90;;;;;;5045217;28;20392;-56
2022/06/26 05:43:01;;;;;;;12.97;6.80;;;16.60;99.90;;;;;;5036454;28;20224;-55
2022/06/26 05:45:28;;;;;;;9.37;6.13;;;16.90;99.90;;;;;;5040987;28;20270;-58
2022/06/26 05:47:54;;;;;;;9.50;5.90;;;16.90;99.90;;;;;;5041976;28;20307;-55
2022/06/26 05:50:23;;;;;;;10.97;5.67;;;16.90;99.90;;;;;;5039119;28;20200;-56
2022/06/26 05:52:50;;;;;;;9.83;6.60;;;17.00;99.90;;;;;;5032210;28;20203;-55
2022/06/26 05:55:17;;;;;;;9.97;5.97;;;16.90;99.90;;;;;;5047425;28;20212;-56
2022/06/26 05:57:44;;;;;;;8.43;5.37;;;16.90;99.90;;;;;;5041216;28;20240;-55
2022/06/26 06:00:14;;;;;;;8.80;5.83;;;16.90;99.90;;;;;;5039900;28;20260;-55
2022/06/26 06:02:41;;;;;;;7.67;5.67;;;16.90;99.90;;;;;;5041515;28;20199;-56
2022/06/26 06:05:09;;;;;;;12.33;5.57;;;17.40;99.90;;;;;;5037670;28;20301;-56
2022/06/26 06:07:36;;;;;;;7.10;5.00;;;17.50;99.90;;;;;;5047063;28;20263;-56
2022/06/26 06:10:07;;;;;;;8.60;5.83;;;17.50;99.90;;;;;;5035853;28;21722;-56
2022/06/26 06:12:34;;;;;;;8.53;5.00;;;17.40;99.90;;;;;;5031726;28;20319;-56
2022/06/26 06:15:01;;;;;;;8.90;5.13;;;17.40;99.90;;;;;;5041355;28;20767;-57
2022/06/26 06:17:37;;;;;;;10.30;5.43;;;17.30;99.90;;;;;;5038739;28;20255;-56
2022/06/26 06:20:11;;;;;;;7.43;5.07;;;17.00;99.90;;;;;;5044569;28;20225;-56
2022/06/26 06:22:54;;;;;;;7.20;4.93;;;17.20;99.90;;;;;;5043027;28;20310;-56
2022/06/26 06:25:22;;;;;;;9.23;5.53;;;17.30;99.90;;;;;;5044237;28;20303;-56
2022/06/26 06:27:50;;;;;;;8.50;6.10;;;17.50;99.90;;;;;;5043455;28;20208;-56
2022/06/26 06:30:17;;;;;;;10.33;6.60;;;17.50;99.90;;;;;;5039855;28;20278;-56
2022/06/26 06:32:45;;;;;;;7.53;6.27;;;17.30;99.90;;;;;;5042057;28;20206;-55
2022/06/26 06:35:13;;;;;;;9.80;6.70;;;17.40;99.90;;;;;;5051053;28;20558;-56
2022/06/26 06:37:42;;;;;;;7.70;6.20;;;17.40;99.90;;;;;;5040110;28;21358;-56
2022/06/26 06:40:10;;;;;;;7.27;6.00;;;17.20;99.90;;;;;;5041303;28;20258;-56
2022/06/26 06:42:37;;;;;;;9.67;5.97;;;17.20;99.90;;;;;;5035844;28;20298;-56
2022/06/26 06:45:05;;;;;;;10.50;6.20;;;17.20;99.90;;;;;;5038555;28;20697;-56
2022/06/26 06:47:32;;;;;;;7.50;6.40;;;17.30;99.90;;;;;;5038091;28;20297;-56
2022/06/26 06:49:59;;;;;;;7.47;6.10;;;17.40;99.90;;;;;;5041300;28;20203;-56
2022/06/26 06:52:26;;;;;;;9.63;6.40;;;17.30;99.90;;;;;;5044006;28;20301;-56
2022/06/26 06:54:53;;;;;;;9.20;6.87;;;17.30;99.90;;;;;;5037755;28;20209;-56
2022/06/26 06:57:20;;;;;;;9.10;6.87;;;17.20;99.90;;;;;;5043705;28;20674;-56
2022/06/26 06:59:47;;;;;;;10.90;7.63;;;17.20;99.90;;;;;;5040577;28;20253;-55
2022/06/26 07:02:14;;;;;;;8.27;6.77;;;17.10;99.90;;;;;;5037822;28;20713;-56
2022/06/26 07:04:41;;;;;;;8.40;6.80;;;17.40;99.90;;;;;;5034650;28;20827;-56
2022/06/26 07:07:08;;;;;;;9.87;7.03;;;17.40;99.90;;;;;;5040307;28;20203;-56
2022/06/26 07:09:35;;;;;;;11.13;7.23;;;17.30;99.90;;;;;;5042426;28;20201;-55
2022/06/26 07:12:02;;;;;;;8.13;6.50;;;17.30;99.90;;;;;;5033249;28;20366;-56
2022/06/26 07:14:29;;;;;;;8.93;7.07;;;17.50;99.90;;;;;;5047499;28;20203;-56
2022/06/26 07:16:56;;;;;;;7.83;6.77;;;17.40;99.90;;;;;;5038341;28;20612;-56
2022/06/26 07:19:22;;;;;;;8.03;6.80;;;17.60;99.90;;;;;;5041445;28;20212;-56
2022/06/26 07:21:49;;;;;;;7.97;6.30;;;17.50;99.90;;;;;;5039632;28;20293;-56
2022/06/26 07:24:16;;;;;;;10.87;6.80;;;17.70;99.90;;;;;;5048034;28;20227;-54
2022/06/26 07:26:43;;;;;;;7.93;6.00;;;17.70;99.90;;;;;;5039085;28;20981;-56
2022/06/26 07:29:10;;;;;;;8.97;6.40;;;17.80;99.90;;;;;;5044107;28;20667;-56
2022/06/26 07:31:37;;;;;;;9.57;6.43;;;18.00;99.90;;;;;;5031622;28;20294;-56
2022/06/26 07:34:13;;;;;;;7.23;6.37;;;18.00;99.90;;;;;;5037728;28;20521;-56
2022/06/26 07:36:41;;;;;;;8.07;6.40;;;18.20;99.90;;;;;;5040895;28;20212;-56
2022/06/26 07:39:10;;;;;;;8.90;6.80;;;18.00;99.90;;;;;;5038264;28;20609;-55
2022/06/26 07:41:37;;;;;;;10.50;6.70;;;18.00;99.90;;;;;;5035309;28;20210;-56
2022/06/26 07:44:04;;;;;;;7.73;6.60;;;18.00;99.90;;;;;;5038149;28;20223;-56
2022/06/26 07:46:32;;;;;;;10.63;6.67;;;18.20;99.90;;;;;;5041427;28;20238;-56
2022/06/26 07:48:59;;;;;;;10.63;7.13;;;18.10;99.90;;;;;;5049698;28;20865;-56
2022/06/26 07:51:25;;;;;;;8.50;7.30;;;18.00;99.90;;;;;;5039673;28;20262;-56
2022/06/26 07:53:52;;;;;;;10.33;7.87;;;17.90;99.90;;;;;;5028874;28;20549;-56
2022/06/26 07:56:19;;;;;;;8.67;6.80;;;17.90;99.90;;;;;;5036027;28;20636;-56
2022/06/26 07:58:46;;;;;;;10.43;7.37;;;17.90;99.90;;;;;;5023129;28;20199;-54
2022/06/26 08:01:13;;;;;;;7.90;7.07;;;18.10;99.90;;;;;;5023948;28;20763;-54
2022/06/26 08:03:44;;;;;;;8.10;7.07;;;18.00;99.90;;;;;;5024388;28;20210;-56
2022/06/26 08:06:11;;;;;;;11.37;7.37;;;18.20;99.90;;;;;;5046277;28;20199;-56
2022/06/26 08:08:38;;;;;;;11.57;7.43;;;18.10;99.90;;;;;;5045669;28;20671;-56
2022/06/26 08:11:05;;;;;;;8.30;7.07;;;18.20;99.90;;;;;;5038693;28;20206;-55
2022/06/26 08:13:32;;;;;;;8.30;7.43;;;18.30;99.90;;;;;;5045138;28;20198;-55
2022/06/26 08:15:59;;;;;;;9.87;6.90;;;18.30;99.90;;;;;;5047442;28;20290;-55
2022/06/26 08:18:26;;;;;;;8.63;7.17;;;18.30;99.90;;;;;;5044883;28;20309;-55
2022/06/26 08:20:53;;;;;;;8.50;6.90;;;18.30;99.90;;;;;;5045132;28;20203;-55
2022/06/26 08:23:20;;;;;;;7.70;6.20;;;18.00;99.90;;;;;;5043038;28;20252;-55
2022/06/26 08:25:46;;;;;;;10.50;6.90;;;18.30;99.90;;;;;;5038626;28;20369;-55
2022/06/26 08:28:13;;;;;;;10.27;7.50;;;18.30;99.90;;;;;;5046029;28;20242;-55
2022/06/26 08:30:40;;;;;;;9.03;7.50;;;18.00;99.90;;;;;;5040062;28;20246;-54
2022/06/26 08:33:07;;;;;;;10.17;7.57;;;18.10;99.90;;;;;;5043956;28;20923;-55
2022/06/26 08:35:34;;;;;;;8.80;7.47;;;18.20;99.90;;;;;;5039772;28;20208;-55
2022/06/26 08:38:01;;;;;;;9.07;7.77;;;18.20;99.90;;;;;;5044994;28;20281;-56
2022/06/26 08:40:28;;;;;;;10.73;7.30;;;18.00;99.90;;;;;;5042136;28;20218;-55
2022/06/26 08:42:55;;;;;;;10.10;8.23;;;18.20;99.90;;;;;;5043222;28;20210;-55
2022/06/26 08:45:22;;;;;;;10.30;7.80;;;18.30;99.90;;;;;;5049207;28;20219;-54
2022/06/26 08:47:52;;;;;;;11.10;8.47;;;18.50;99.90;;;;;;5038679;28;20258;-54
2022/06/26 08:50:23;;;;;;;9.97;8.40;;;18.40;99.90;;;;;;5042641;28;20204;-55
2022/06/26 08:52:51;;;;;;;8.93;7.40;;;18.40;99.90;;;;;;5044835;28;20214;-55
2022/06/26 08:55:20;;;;;;;10.07;8.50;;;18.40;99.90;;;;;;5035698;28;21738;-56
2022/06/26 08:57:48;;;;;;;11.90;8.70;;;18.40;99.90;;;;;;5040336;28;20276;-56
2022/06/26 09:00:16;;;;;;;10.80;8.40;;;18.30;99.90;;;;;;5040662;28;20204;-55
2022/06/26 09:02:44;;;;;;;11.40;7.83;;;18.40;99.90;;;;;;5044133;28;20241;-55
2022/06/26 09:05:11;;;;;;;9.30;7.37;;;18.30;99.90;;;;;;5049472;28;20263;-55
2022/06/26 09:07:51;;;;;;;9.47;7.67;;;18.50;99.90;;;;;;5046884;28;20196;-55
2022/06/26 09:10:18;;;;;;;8.83;7.13;;;18.40;99.90;;;;;;5047621;28;20655;-54
2022/06/26 09:12:57;;;;;;;11.37;7.37;;;18.30;99.90;;;;;;5035877;28;20215;-54
2022/06/26 09:15:25;;;;;;;11.53;7.63;;;18.30;99.90;;;;;;5050378;28;21029;-55
2022/06/26 09:18:04;;;;;;;8.83;6.40;;;18.40;99.90;;;;;;5053121;28;20201;-55
2022/06/26 09:20:36;;;;;;;14.03;7.00;;;18.60;99.90;;;;;;5037542;28;20678;-55
2022/06/26 09:23:04;;;;;;;10.97;6.07;;;18.50;99.90;;;;;;5023841;28;20277;-54
2022/06/26 09:25:35;;;;;;;7.13;5.83;;;18.60;99.90;;;;;;5029760;28;20258;-55
2022/06/26 09:28:12;;;;;;;7.03;5.93;;;18.50;99.90;;;;;;5038002;28;20749;-55
2022/06/26 09:30:51;;;;;;;7.37;5.83;;;18.50;99.90;;;;;;5045495;28;20233;-54
2022/06/26 09:33:24;;;;;;;9.83;5.97;;;18.40;99.90;;;;;;5040374;28;20202;-54
2022/06/26 09:35:53;;;;;;;7.80;6.33;;;18.60;99.90;;;;;;5041523;28;20278;-55
2022/06/26 09:38:22;;;;;;;6.97;5.87;;;18.50;99.90;;;;;;5039415;28;20612;-56
2022/06/26 09:40:52;;;;;;;12.47;5.57;;;18.50;99.90;;;;;;5037024;28;20345;-54
2022/06/26 09:43:34;;;;;;;10.57;7.13;;;18.60;99.90;;;;;;5039573;28;20207;-54
2022/06/26 09:46:03;;;;;;;7.63;5.90;;;18.60;99.90;;;;;;5038103;28;20585;-55
2022/06/26 09:48:30;;;;;;;6.47;5.17;;;18.50;99.90;;;;;;5037163;28;20228;-54
2022/06/26 09:50:58;;;;;;;7.33;5.50;;;18.70;99.90;;;;;;5049194;28;20219;-54
2022/06/26 09:53:27;;;;;;;11.37;6.37;;;18.70;99.90;;;;;;5103336;22;20230;-82
2022/06/26 09:55:56;;;;;;;8.10;5.83;;;18.70;99.90;;;;;;5104049;28;20216;-83
2022/06/26 09:58:24;;;;;;;7.70;5.97;;;18.80;99.90;;;;;;5103712;28;20206;-82
2022/06/26 10:06:29;;;;;;;7.23;5.33;;;18.90;99.90;;;;;;5109282;28;20691;-83
2022/06/26 10:08:58;;;;;;;7.20;4.73;;;19.10;99.90;;;;;;5104223;28;20652;-81
2022/06/26 10:11:31;;;;;;;9.40;4.70;;;19.10;99.90;;;;;;5106566;28;20220;-84
2022/06/26 10:14:04;;;;;;;6.83;5.00;;;19.00;99.90;;;;;;5107891;28;20255;-81
2022/06/26 10:16:31;;;;;;;6.53;5.73;;;19.10;99.90;;;;;;5103783;28;20193;-82
2022/06/26 10:19:28;;;;;;;6.23;4.97;;;19.00;99.90;;;;;;5113704;27;20775;-84
2022/06/26 10:21:56;;;;;;;6.63;4.30;;;19.00;99.90;;;;;;5118938;27;20289;-84
2022/06/26 10:24:24;;;;;;;5.90;4.03;;;19.10;99.90;;;;;;5105340;28;20204;-83
2022/06/26 10:26:59;;;;;;;5.27;4.47;;;19.10;99.90;;;;;;5108499;28;20242;-83
2022/06/26 10:30:22;;;;;;;6.77;5.40;;;19.20;99.90;;;;;;5124582;27;20199;-82
2022/06/26 10:33:20;;;;;;;7.83;5.20;;;19.30;99.90;;;;;;5081452;28;20204;-83
2022/06/26 10:35:51;;;;;;;4.87;3.90;;;19.50;99.90;;;;;;5104480;28;20227;-83
2022/06/26 10:38:21;;;;;;;4.57;3.20;;;19.70;99.90;;;;;;5104055;28;20350;-83
2022/06/26 10:44:16;;;;;;;4.67;3.50;;;19.60;99.90;;;;;;5104206;28;20205;-83
2022/06/26 10:46:49;;;;;;;5.37;3.67;;;20.00;99.90;;;;;;5097919;28;20230;-83
2022/06/26 10:49:17;;;;;;;7.05;4.20;;;20.00;99.90;;;;;;5084620;28;20452;-83
2022/06/26 10:51:45;;;;;;;4.00;3.03;;;20.00;99.90;;;;;;5081421;28;20625;-81
2022/06/26 10:54:23;;;;;;;5.77;2.67;;;20.00;99.90;;;;;;5084886;28;20263;-82
2022/06/26 10:57:17;;;;;;;3.17;2.60;;;20.50;99.90;;;;;;5078555;28;20217;-82
2022/06/26 10:59:45;;;;;;;4.70;2.60;;;20.70;99.90;;;;;;5088566;28;20209;-84
2022/06/26 11:02:13;;;;;;;4.23;2.70;;;20.50;99.90;;;;;;5081535;28;20240;-80
2022/06/26 11:04:49;;;;;;;4.50;2.80;;;20.60;99.90;;;;;;5067242;28;20278;-82
2022/06/26 11:07:17;;;;;;;4.90;2.80;;;20.70;99.90;;;;;;5082614;28;20194;-82
2022/06/26 11:09:44;;;;;;;3.57;2.43;;;20.40;99.90;;;;;;5083502;28;20221;-80
2022/06/26 11:12:13;;;;;;;5.70;2.93;;;20.50;99.90;;;;;;5078686;28;20211;-82
2022/06/26 11:14:40;;;;;;;3.73;2.33;;;20.70;99.90;;;;;;5084356;28;20278;-82
2022/06/26 11:17:07;;;;;;;4.40;2.20;;;20.60;99.90;;;;;;5082936;28;20233;-80
2022/06/26 11:22:20;;;;;;;3.07;2.03;;;20.70;99.90;;;;;;5090325;28;20346;-80
2022/06/26 11:24:52;;;;;;;3.40;2.27;;;20.70;99.90;;;;;;5088072;28;20200;-83
2022/06/26 11:27:27;;;;;;;3.07;2.20;;;21.00;99.90;;;;;;5088570;28;20659;-81
2022/06/26 11:29:54;;;;;;;3.13;1.90;;;20.60;99.90;;;;;;5087604;28;20198;-82
2022/06/26 11:32:22;;;;;;;3.73;2.20;;;21.10;99.90;;;;;;5090051;28;20237;-81
2022/06/26 11:34:54;;;;;;;4.37;2.00;;;20.90;99.90;;;;;;5094611;28;20232;-81
2022/06/26 11:37:38;;;;;;;3.13;2.07;;;20.90;99.90;;;;;;5094069;28;20714;-81
2022/06/26 11:40:13;;;;;;;3.67;2.17;;;21.40;99.90;;;;;;5091099;28;20598;-84
2022/06/26 11:42:40;;;;;;;3.17;2.20;;;21.50;77.90;;;;;;5092036;28;20198;-83
2022/06/26 11:45:08;;;;;;;5.73;2.07;;;21.80;1.00;;;;;;5091149;28;21153;-82
2022/06/26 11:47:38;;;;;;;4.57;2.10;;;21.70;66.00;;;;;;5087046;28;20219;-83
2022/06/26 11:50:07;;;;;;;3.90;2.00;;;21.90;1.00;;;;;;5090870;28;20264;-83
2022/06/26 11:52:34;;;;;;;4.30;2.00;;;21.70;37.60;;;;;;5087771;28;20238;-83
2022/06/26 11:55:02;;;;;;;4.70;2.30;;;21.20;1.00;;;;;;5088433;28;20201;-83
2022/06/26 11:57:37;;;;;;;5.80;2.20;;;21.30;25.50;;;;;;5086058;28;20648;-83
2022/06/26 12:00:06;;;;;;;3.47;2.10;;;21.10;1.00;;;;;;5082510;28;20286;-84
2022/06/26 12:02:41;;;;;;;4.13;2.10;;;21.10;26.90;;;;;;5081018;28;20199;-83
2022/06/26 12:05:08;;;;;;;3.47;2.27;;;21.20;52.80;;;;;;5087855;28;20218;-81
2022/06/26 12:07:47;;;;;;;4.33;2.37;;;21.00;18.10;;;;;;5086957;28;20286;-83
2022/06/26 12:10:35;;;;;;;4.50;2.07;;;21.10;8.40;;;;;;5084861;28;20214;-80
2022/06/26 12:13:04;;;;;;;3.43;2.40;;;20.80;35.30;;;;;;5083256;28;20202;-83
2022/06/26 12:15:33;;;;;;;3.47;2.70;;;20.90;99.90;;;;;;5068851;28;20297;-83
2022/06/26 12:18:04;;;;;;;7.67;2.57;;;20.80;80.00;;;;;;5085894;28;20217;-83
2022/06/26 12:20:37;;;;;;;3.87;2.30;;;20.70;72.50;;;;;;5082189;28;20202;-82
2022/06/26 12:23:04;;;;;;;4.13;2.40;;;20.60;78.70;;;;;;5100427;28;20686;-83
2022/06/26 12:25:35;;;;;;;6.67;2.57;;;20.70;99.70;;;;;;5084844;28;20234;-79
2022/06/26 12:28:03;;;;;;;6.27;2.67;;;20.60;74.90;;;;;;5086335;28;20241;-80
2022/06/26 12:30:36;;;;;;;4.00;2.10;;;20.50;92.70;;;;;;5083144;28;20249;-80
2022/06/26 12:33:04;;;;;;;4.13;2.30;;;20.50;99.90;;;;;;5081702;28;20199;-80
2022/06/26 12:35:33;;;;;;;3.97;1.80;;;20.50;99.90;;;;;;5085818;28;21890;-80
2022/06/26 12:38:01;;;;;;;3.97;2.10;;;20.70;99.90;;;;;;5087799;28;20209;-80
2022/06/26 12:40:28;;;;;;;5.70;2.07;;;20.60;99.60;;;;;;5083107;28;20207;-80
2022/06/26 12:42:55;;;;;;;4.97;2.00;;;20.70;99.90;;;;;;5086025;28;20214;-80
2022/06/26 12:45:22;;;;;;;4.37;2.20;;;20.80;86.50;;;;;;5087365;28;20297;-80
2022/06/26 12:47:50;;;;;;;5.53;1.97;;;20.80;80.50;;;;;;5086930;28;20298;-80
2022/06/26 12:50:18;;;;;;;3.90;2.03;;;20.80;11.30;;;;;;5070628;28;20553;-80
2022/06/26 12:52:45;;;;;;;3.47;1.70;;;20.80;73.00;;;;;;5069477;28;20226;-80
2022/06/26 12:55:12;;;;;;;4.47;1.63;;;20.70;57.50;;;;;;5054315;28;20541;-83
2022/06/26 12:57:39;;;;;;;4.00;2.07;;;21.60;37.80;;;;;;5067413;28;20194;-80
2022/06/26 13:00:08;;;;;;;3.97;1.70;;;22.00;1.00;;;;;;5056468;28;20585;-80
2022/06/26 13:02:35;;;;;;;2.83;1.90;;;21.80;1.00;;;;;;5086716;28;20195;-80
2022/06/26 13:05:02;;;;;;;6.40;2.53;;;21.60;1.00;;;;;;5054892;28;20563;-81
2022/06/26 13:07:29;;;;;;;5.80;1.93;;;21.50;1.00;;;;;;5071439;28;20259;-81